sensor_id;sensor_type;location;lat;lon;timestamp;pressure;altitude;pressure_sealevel;temperature;humidity
28448;BME280;15675;52.870;-1.416;2023-03-21T00:00:40;100480.38;;;11.22;100.00
28448;BME280;15675;52.870;-1.416;2023-03-21T00:03:05;100475.19;;;11.25;100.00
28448;BME280;15675;52.870;-1.416;2023-03-21T00:05:31;100476.84;;;11.38;100.00
28448;BME280;15675;52.870;-1.416;2023-03-21T00:07:56;100477.84;;;10.99;100.00
28448;BME280;15675;52.870;-1.416;2023-03-21T00:10:22;100476.09;;;11.12;100.00
28448;BME280;15675;52.870;-1.416;2023-03-21T00:12:47;100476.03;;;11.26;100.00
28448;BME280;15675;52.870;-1.416;2023-03-21T00:15:24;100470.88;;;11.15;100.00
28448;BME280;15675;52.870;-1.416;2023-03-21T00:17:55;100469.97;;;11.25;100.00
28448;BME280;15675;52.870;-1.416;2023-03-21T00:20:29;100471.66;;;11.46;100.00
28448;BME280;15675;52.870;-1.416;2023-03-21T00:22:55;100463.91;;;11.20;100.00
28448;BME280;15675;52.870;-1.416;2023-03-21T00:25:21;100465.50;;;11.63;100.00
28448;BME280;15675;52.870;-1.416;2023-03-21T00:27:47;100459.50;;;11.47;100.00
28448;BME280;15675;52.870;-1.416;2023-03-21T00:30:13;100460.47;;;11.21;100.00
28448;BME280;15675;52.870;-1.416;2023-03-21T00:32:39;100457.00;;;11.22;100.00
28448;BME280;15675;52.870;-1.416;2023-03-21T00:35:05;100454.31;;;11.45;100.00
28448;BME280;15675;52.870;-1.416;2023-03-21T00:37:31;100448.28;;;11.42;100.00
28448;BME280;15675;52.870;-1.416;2023-03-21T00:39:56;100450.88;;;11.38;100.00
28448;BME280;15675;52.870;-1.416;2023-03-21T00:42:22;100440.44;;;11.51;100.00
28448;BME280;15675;52.870;-1.416;2023-03-21T00:44:48;100441.19;;;11.73;100.00
28448;BME280;15675;52.870;-1.416;2023-03-21T00:47:13;100423.97;;;11.50;100.00
28448;BME280;15675;52.870;-1.416;2023-03-21T00:49:39;100429.03;;;11.75;100.00
28448;BME280;15675;52.870;-1.416;2023-03-21T00:52:07;100416.28;;;11.22;100.00
28448;BME280;15675;52.870;-1.416;2023-03-21T00:54:33;100416.31;;;11.19;100.00
28448;BME280;15675;52.870;-1.416;2023-03-21T00:56:59;100415.41;;;11.28;100.00
28448;BME280;15675;52.870;-1.416;2023-03-21T00:59:27;100415.44;;;11.16;100.00
28448;BME280;15675;52.870;-1.416;2023-03-21T01:01:53;100415.31;;;11.47;100.00
28448;BME280;15675;52.870;-1.416;2023-03-21T01:04:19;100415.31;;;11.53;100.00
28448;BME280;15675;52.870;-1.416;2023-03-21T01:06:46;100401.56;;;11.20;100.00
28448;BME280;15675;52.870;-1.416;2023-03-21T01:09:14;100404.19;;;11.18;100.00
28448;BME280;15675;52.870;-1.416;2023-03-21T01:11:41;100389.38;;;11.42;100.00
28448;BME280;15675;52.870;-1.416;2023-03-21T01:14:07;100391.06;;;11.49;100.00
28448;BME280;15675;52.870;-1.416;2023-03-21T01:16:33;100383.31;;;11.43;100.00
28448;BME280;15675;52.870;-1.416;2023-03-21T01:18:59;100376.44;;;11.25;100.00
28448;BME280;15675;52.870;-1.416;2023-03-21T01:21:25;100370.47;;;11.08;100.00
28448;BME280;15675;52.870;-1.416;2023-03-21T01:23:51;100369.63;;;11.01;100.00
28448;BME280;15675;52.870;-1.416;2023-03-21T01:26:16;100358.41;;;10.90;100.00
28448;BME280;15675;52.870;-1.416;2023-03-21T01:28:43;100362.69;;;11.00;100.00
28448;BME280;15675;52.870;-1.416;2023-03-21T01:31:11;100365.22;;;11.15;100.00
28448;BME280;15675;52.870;-1.416;2023-03-21T01:33:37;100351.41;;;11.12;100.00
28448;BME280;15675;52.870;-1.416;2023-03-21T01:36:03;100341.03;;;11.10;100.00
28448;BME280;15675;52.870;-1.416;2023-03-21T01:38:30;100333.38;;;10.73;100.00
28448;BME280;15675;52.870;-1.416;2023-03-21T01:40:57;100327.22;;;10.96;100.00
28448;BME280;15675;52.870;-1.416;2023-03-21T01:43:32;100330.63;;;11.09;100.00
28448;BME280;15675;52.870;-1.416;2023-03-21T01:48:23;100335.69;;;11.36;100.00
28448;BME280;15675;52.870;-1.416;2023-03-21T01:50:51;100326.34;;;10.97;100.00
28448;BME280;15675;52.870;-1.416;2023-03-21T01:53:19;100322.97;;;10.70;100.00
28448;BME280;15675;52.870;-1.416;2023-03-21T01:55:46;100318.63;;;10.78;100.00
28448;BME280;15675;52.870;-1.416;2023-03-21T01:58:13;100319.53;;;10.69;100.00
28448;BME280;15675;52.870;-1.416;2023-03-21T02:00:44;100317.81;;;10.64;100.00
28448;BME280;15675;52.870;-1.416;2023-03-21T02:03:11;100323.75;;;10.95;100.00
28448;BME280;15675;52.870;-1.416;2023-03-21T02:05:59;100322.84;;;11.12;100.00
28448;BME280;15675;52.870;-1.416;2023-03-21T02:08:27;100316.03;;;10.86;100.00
28448;BME280;15675;52.870;-1.416;2023-03-21T02:10:53;100316.94;;;10.66;100.00
28448;BME280;15675;52.870;-1.416;2023-03-21T02:13:19;100316.06;;;10.74;100.00
28448;BME280;15675;52.870;-1.416;2023-03-21T02:19:00;100321.94;;;11.19;100.00
28448;BME280;15675;52.870;-1.416;2023-03-21T02:29:27;100303.72;;;11.23;100.00
28448;BME280;15675;52.870;-1.416;2023-03-21T02:37:34;100289.75;;;11.40;100.00
28448;BME280;15675;52.870;-1.416;2023-03-21T02:40:15;100284.59;;;11.32;100.00
28448;BME280;15675;52.870;-1.416;2023-03-21T02:42:58;100277.00;;;10.98;100.00
28448;BME280;15675;52.870;-1.416;2023-03-21T02:45:31;100270.94;;;10.99;100.00
28448;BME280;15675;52.870;-1.416;2023-03-21T02:48:04;100273.53;;;10.99;100.00
28448;BME280;15675;52.870;-1.416;2023-03-21T02:50:40;100273.47;;;11.09;100.00
28448;BME280;15675;52.870;-1.416;2023-03-21T02:53:09;100278.78;;;10.92;100.00
28448;BME280;15675;52.870;-1.416;2023-03-21T02:55:36;100274.44;;;10.92;100.00
28448;BME280;15675;52.870;-1.416;2023-03-21T02:58:07;100264.03;;;10.98;100.00
28448;BME280;15675;52.870;-1.416;2023-03-21T03:00:34;100265.78;;;10.88;100.00
28448;BME280;15675;52.870;-1.416;2023-03-21T03:03:01;100252.72;;;11.05;100.00
28448;BME280;15675;52.870;-1.416;2023-03-21T03:05:30;100255.31;;;11.05;100.00
28448;BME280;15675;52.870;-1.416;2023-03-21T03:11:25;100244.13;;;10.99;100.00
28448;BME280;15675;52.870;-1.416;2023-03-21T03:13:56;100245.84;;;10.98;100.00
28448;BME280;15675;52.870;-1.416;2023-03-21T03:16:53;100251.00;;;11.01;100.00
28448;BME280;15675;52.870;-1.416;2023-03-21T03:19:27;100259.56;;;11.23;100.00
28448;BME280;15675;52.870;-1.416;2023-03-21T03:22:00;100242.25;;;11.21;100.00
28448;BME280;15675;52.870;-1.416;2023-03-21T03:27:08;100221.72;;;10.78;100.00
28448;BME280;15675;52.870;-1.416;2023-03-21T03:29:38;100232.97;;;10.75;100.00
28448;BME280;15675;52.870;-1.416;2023-03-21T03:32:12;100231.03;;;11.13;100.00
28448;BME280;15675;52.870;-1.416;2023-03-21T03:34:43;100232.75;;;11.17;100.00
28448;BME280;15675;52.870;-1.416;2023-03-21T03:37:16;100224.16;;;11.05;100.00
28448;BME280;15675;52.870;-1.416;2023-03-21T03:39:52;100231.81;;;11.27;100.00
28448;BME280;15675;52.870;-1.416;2023-03-21T03:42:36;100231.06;;;11.10;100.00
28448;BME280;15675;52.870;-1.416;2023-03-21T03:45:03;100227.56;;;11.15;100.00
28448;BME280;15675;52.870;-1.416;2023-03-21T03:50:41;100224.97;;;11.15;100.00
28448;BME280;15675;52.870;-1.416;2023-03-21T03:55:41;100208.56;;;11.10;100.00
28448;BME280;15675;52.870;-1.416;2023-03-21T03:58:07;100208.50;;;11.16;100.00
28448;BME280;15675;52.870;-1.416;2023-03-21T04:00:33;100202.34;;;11.31;100.00
28448;BME280;15675;52.870;-1.416;2023-03-21T04:02:59;100199.06;;;11.08;100.00
28448;BME280;15675;52.870;-1.416;2023-03-21T04:05:25;100184.47;;;10.85;100.00
28448;BME280;15675;52.870;-1.416;2023-03-21T04:07:51;100185.41;;;10.71;100.00
28448;BME280;15675;52.870;-1.416;2023-03-21T04:10:18;100180.06;;;10.98;100.00
28448;BME280;15675;52.870;-1.416;2023-03-21T04:12:43;100185.31;;;10.88;100.00
28448;BME280;15675;52.870;-1.416;2023-03-21T04:15:09;100177.50;;;10.88;100.00
28448;BME280;15675;52.870;-1.416;2023-03-21T04:17:35;100175.72;;;11.00;100.00
28448;BME280;15675;52.870;-1.416;2023-03-21T04:20:03;100180.13;;;10.92;100.00
28448;BME280;15675;52.870;-1.416;2023-03-21T04:22:30;100175.63;;;11.14;100.00
28448;BME280;15675;52.870;-1.416;2023-03-21T04:24:56;100176.66;;;10.88;100.00
28448;BME280;15675;52.870;-1.416;2023-03-21T04:27:22;100177.44;;;11.01;100.00
28448;BME280;15675;52.870;-1.416;2023-03-21T04:29:47;100174.88;;;10.96;100.00
28448;BME280;15675;52.870;-1.416;2023-03-21T04:32:13;100162.59;;;11.18;100.00
28448;BME280;15675;52.870;-1.416;2023-03-21T04:34:42;100167.97;;;10.94;100.00
28448;BME280;15675;52.870;-1.416;2023-03-21T04:37:17;100154.03;;;11.05;100.00
28448;BME280;15675;52.870;-1.416;2023-03-21T04:39:44;100147.19;;;10.95;100.00
28448;BME280;15675;52.870;-1.416;2023-03-21T04:42:13;100158.50;;;10.88;100.00
28448;BME280;15675;52.870;-1.416;2023-03-21T04:44:42;100151.47;;;11.01;100.00
28448;BME280;15675;52.870;-1.416;2023-03-21T04:47:07;100142.63;;;11.27;100.00
28448;BME280;15675;52.870;-1.416;2023-03-21T04:49:33;100139.97;;;11.33;100.00
28448;BME280;15675;52.870;-1.416;2023-03-21T04:51:58;100139.19;;;11.20;100.00
28448;BME280;15675;52.870;-1.416;2023-03-21T04:54:24;100130.69;;;11.04;100.00
28448;BME280;15675;52.870;-1.416;2023-03-21T04:56:50;100127.75;;;11.43;100.00
28448;BME280;15675;52.870;-1.416;2023-03-21T04:59:17;100134.94;;;11.13;100.00
28448;BME280;15675;52.870;-1.416;2023-03-21T05:01:44;100128.06;;;11.05;100.00
28448;BME280;15675;52.870;-1.416;2023-03-21T05:04:12;100128.13;;;10.98;100.00
28448;BME280;15675;52.870;-1.416;2023-03-21T05:06:38;100124.50;;;11.16;100.00
28448;BME280;15675;52.870;-1.416;2023-03-21T05:09:04;100116.94;;;10.90;100.00
28448;BME280;15675;52.870;-1.416;2023-03-21T05:11:33;100113.41;;;10.98;100.00
28448;BME280;15675;52.870;-1.416;2023-03-21T05:14:03;100111.72;;;10.91;100.00
28448;BME280;15675;52.870;-1.416;2023-03-21T05:16:28;100095.22;;;10.98;100.00
28448;BME280;15675;52.870;-1.416;2023-03-21T05:18:56;100093.63;;;10.82;100.00
28448;BME280;15675;52.870;-1.416;2023-03-21T05:21:23;100099.63;;;10.92;100.00
28448;BME280;15675;52.870;-1.416;2023-03-21T05:23:49;100098.81;;;10.79;100.00
28448;BME280;15675;52.870;-1.416;2023-03-21T05:26:20;100099.66;;;10.84;100.00
28448;BME280;15675;52.870;-1.416;2023-03-21T05:28:46;100099.88;;;10.50;100.00
28448;BME280;15675;52.870;-1.416;2023-03-21T05:31:16;100102.22;;;10.93;100.00
28448;BME280;15675;52.870;-1.416;2023-03-21T05:33:43;100095.09;;;11.15;100.00
28448;BME280;15675;52.870;-1.416;2023-03-21T05:36:09;100090.97;;;10.91;100.00
28448;BME280;15675;52.870;-1.416;2023-03-21T05:38:35;100101.28;;;11.00;100.00
28448;BME280;15675;52.870;-1.416;2023-03-21T05:41:00;100093.34;;;11.16;100.00
28448;BME280;15675;52.870;-1.416;2023-03-21T05:43:26;100080.56;;;10.93;100.00
28448;BME280;15675;52.870;-1.416;2023-03-21T05:45:52;100094.56;;;10.73;100.00
28448;BME280;15675;52.870;-1.416;2023-03-21T05:48:19;100077.84;;;11.08;100.00
28448;BME280;15675;52.870;-1.416;2023-03-21T05:50:44;100078.00;;;10.90;100.00
28448;BME280;15675;52.870;-1.416;2023-03-21T05:53:10;100076.13;;;11.05;100.00
28448;BME280;15675;52.870;-1.416;2023-03-21T05:55:36;100077.81;;;11.10;100.00
28448;BME280;15675;52.870;-1.416;2023-03-21T05:58:02;100077.19;;;10.81;100.00
28448;BME280;15675;52.870;-1.416;2023-03-21T06:00:28;100068.63;;;10.67;100.00
28448;BME280;15675;52.870;-1.416;2023-03-21T06:02:53;100069.56;;;10.58;100.00
28448;BME280;15675;52.870;-1.416;2023-03-21T06:05:19;100065.28;;;10.51;100.00
28448;BME280;15675;52.870;-1.416;2023-03-21T06:07:44;100076.59;;;10.31;100.00
28448;BME280;15675;52.870;-1.416;2023-03-21T06:10:10;100070.44;;;10.54;100.00
28448;BME280;15675;52.870;-1.416;2023-03-21T06:12:36;100076.63;;;10.38;100.00
28448;BME280;15675;52.870;-1.416;2023-03-21T06:15:02;100070.44;;;10.56;100.00
28448;BME280;15675;52.870;-1.416;2023-03-21T06:17:30;100077.47;;;10.38;100.00
28448;BME280;15675;52.870;-1.416;2023-03-21T06:19:56;100084.34;;;10.45;100.00
28448;BME280;15675;52.870;-1.416;2023-03-21T06:22:21;100084.31;;;10.51;100.00
28448;BME280;15675;52.870;-1.416;2023-03-21T06:24:47;100080.78;;;10.63;100.00
28448;BME280;15675;52.870;-1.416;2023-03-21T06:27:13;100079.94;;;10.58;100.00
28448;BME280;15675;52.870;-1.416;2023-03-21T06:29:38;100083.50;;;10.45;100.00
28448;BME280;15675;52.870;-1.416;2023-03-21T06:32:04;100089.47;;;10.53;100.00
28448;BME280;15675;52.870;-1.416;2023-03-21T06:34:32;100090.25;;;10.70;100.00
28448;BME280;15675;52.870;-1.416;2023-03-21T06:36:57;100085.13;;;10.60;100.00
28448;BME280;15675;52.870;-1.416;2023-03-21T06:39:23;100080.91;;;10.39;100.00
28448;BME280;15675;52.870;-1.416;2023-03-21T06:41:48;100085.25;;;10.36;100.00
28448;BME280;15675;52.870;-1.416;2023-03-21T06:44:14;100068.09;;;10.09;100.00
28448;BME280;15675;52.870;-1.416;2023-03-21T06:46:40;100072.28;;;10.29;100.00
28448;BME280;15675;52.870;-1.416;2023-03-21T06:49:05;100073.19;;;10.25;100.00
28448;BME280;15675;52.870;-1.416;2023-03-21T06:51:31;100088.69;;;10.40;100.00
28448;BME280;15675;52.870;-1.416;2023-03-21T06:53:56;100090.41;;;10.43;100.00
28448;BME280;15675;52.870;-1.416;2023-03-21T06:56:22;100080.94;;;10.31;100.00
28448;BME280;15675;52.870;-1.416;2023-03-21T06:58:47;100087.00;;;10.38;100.00
28448;BME280;15675;52.870;-1.416;2023-03-21T07:01:14;100084.22;;;10.64;100.00
28448;BME280;15675;52.870;-1.416;2023-03-21T07:03:39;100084.28;;;10.56;100.00
28448;BME280;15675;52.870;-1.416;2023-03-21T07:06:09;100076.41;;;10.67;100.00
28448;BME280;15675;52.870;-1.416;2023-03-21T07:08:37;100080.00;;;10.49;100.00
28448;BME280;15675;52.870;-1.416;2023-03-21T07:11:02;100074.63;;;10.77;100.00
28448;BME280;15675;52.870;-1.416;2023-03-21T07:13:28;100073.00;;;10.65;100.00
28448;BME280;15675;52.870;-1.416;2023-03-21T07:15:54;100070.34;;;10.69;100.00
28448;BME280;15675;52.870;-1.416;2023-03-21T07:18:20;100070.38;;;10.68;100.00
28448;BME280;15675;52.870;-1.416;2023-03-21T07:20:47;100067.59;;;10.90;100.00
28448;BME280;15675;52.870;-1.416;2023-03-21T07:23:19;100060.81;;;10.71;100.00
28448;BME280;15675;52.870;-1.416;2023-03-21T07:25:47;100067.69;;;10.80;100.00
28448;BME280;15675;52.870;-1.416;2023-03-21T07:28:13;100063.53;;;10.51;100.00
28448;BME280;15675;52.870;-1.416;2023-03-21T07:30:39;100063.41;;;10.73;100.00
28448;BME280;15675;52.870;-1.416;2023-03-21T07:33:04;100063.41;;;10.73;100.00
28448;BME280;15675;52.870;-1.416;2023-03-21T07:35:31;100065.97;;;10.78;100.00
28448;BME280;15675;52.870;-1.416;2023-03-21T07:37:57;100064.25;;;10.77;100.00
28448;BME280;15675;52.870;-1.416;2023-03-21T07:40:22;100071.94;;;10.91;100.00
28448;BME280;15675;52.870;-1.416;2023-03-21T07:42:48;100064.88;;;11.05;100.00
28448;BME280;15675;52.870;-1.416;2023-03-21T07:45:15;100068.25;;;11.15;100.00
28448;BME280;15675;52.870;-1.416;2023-03-21T07:47:45;100065.75;;;11.02;100.00
28448;BME280;15675;52.870;-1.416;2023-03-21T07:50:11;100063.38;;;10.79;100.00
28448;BME280;15675;52.870;-1.416;2023-03-21T07:52:37;100077.03;;;11.01;100.00
28448;BME280;15675;52.870;-1.416;2023-03-21T07:55:03;100075.06;;;11.28;100.00
28448;BME280;15675;52.870;-1.416;2023-03-21T07:57:29;100069.78;;;11.39;100.00
28448;BME280;15675;52.870;-1.416;2023-03-21T07:59:55;100067.09;;;11.47;100.00
28448;BME280;15675;52.870;-1.416;2023-03-21T08:02:20;100057.22;;;11.77;100.00
28448;BME280;15675;52.870;-1.416;2023-03-21T08:04:46;100058.13;;;11.72;100.00
28448;BME280;15675;52.870;-1.416;2023-03-21T08:07:12;100058.88;;;11.84;100.00
28448;BME280;15675;52.870;-1.416;2023-03-21T08:09:37;100059.56;;;12.00;100.00
28448;BME280;15675;52.870;-1.416;2023-03-21T08:12:04;100049.75;;;12.23;100.00
28448;BME280;15675;52.870;-1.416;2023-03-21T08:14:30;100055.00;;;12.19;100.00
28448;BME280;15675;52.870;-1.416;2023-03-21T08:16:55;100056.66;;;12.26;100.00
28448;BME280;15675;52.870;-1.416;2023-03-21T08:19:21;100050.94;;;11.99;100.00
28448;BME280;15675;52.870;-1.416;2023-03-21T08:21:48;100044.72;;;12.09;100.00
28448;BME280;15675;52.870;-1.416;2023-03-21T08:24:14;100038.84;;;11.94;100.00
28448;BME280;15675;52.870;-1.416;2023-03-21T08:26:40;100035.44;;;11.87;100.00
28448;BME280;15675;52.870;-1.416;2023-03-21T08:29:06;100030.06;;;12.02;100.00
28448;BME280;15675;52.870;-1.416;2023-03-21T08:31:31;100033.53;;;12.01;100.00
28448;BME280;15675;52.870;-1.416;2023-03-21T08:33:57;100012.03;;;11.87;100.00
28448;BME280;15675;52.870;-1.416;2023-03-21T08:36:23;100012.13;;;11.81;100.00
28448;BME280;15675;52.870;-1.416;2023-03-21T08:38:48;100021.41;;;12.03;100.00
28448;BME280;15675;52.870;-1.416;2023-03-21T08:41:18;100014.69;;;11.84;100.00
28448;BME280;15675;52.870;-1.416;2023-03-21T08:43:47;100016.53;;;11.74;100.00
28448;BME280;15675;52.870;-1.416;2023-03-21T08:46:13;100006.16;;;11.72;100.00
28448;BME280;15675;52.870;-1.416;2023-03-21T08:48:38;100022.22;;;12.08;100.00
28448;BME280;15675;52.870;-1.416;2023-03-21T08:51:05;100013.53;;;12.08;100.00
28448;BME280;15675;52.870;-1.416;2023-03-21T08:53:32;100000.34;;;12.20;100.00
28448;BME280;15675;52.870;-1.416;2023-03-21T08:55:57;100000.19;;;12.31;100.00
28448;BME280;15675;52.870;-1.416;2023-03-21T08:58:23;100000.19;;;12.31;100.00
28448;BME280;15675;52.870;-1.416;2023-03-21T09:00:49;100012.84;;;11.94;100.00
28448;BME280;15675;52.870;-1.416;2023-03-21T09:03:15;100011.59;;;12.22;100.00
28448;BME280;15675;52.870;-1.416;2023-03-21T09:05:41;99999.78;;;12.59;100.00
28448;BME280;15675;52.870;-1.416;2023-03-21T09:08:10;100016.41;;;12.50;100.00
28448;BME280;15675;52.870;-1.416;2023-03-21T09:10:37;100005.97;;;12.52;100.00
28448;BME280;15675;52.870;-1.416;2023-03-21T09:13:03;100014.81;;;12.38;100.00
28448;BME280;15675;52.870;-1.416;2023-03-21T09:15:28;100002.41;;;12.57;100.00
28448;BME280;15675;52.870;-1.416;2023-03-21T09:17:54;100000.88;;;12.42;100.00
28448;BME280;15675;52.870;-1.416;2023-03-21T09:20:24;100004.13;;;12.58;100.00
28448;BME280;15675;52.870;-1.416;2023-03-21T09:22:58;100001.34;;;12.69;100.00
28448;BME280;15675;52.870;-1.416;2023-03-21T09:25:24;100000.38;;;12.75;100.00
28448;BME280;15675;52.870;-1.416;2023-03-21T09:27:50;99992.53;;;12.76;100.00
28448;BME280;15675;52.870;-1.416;2023-03-21T09:30:19;99982.66;;;12.42;100.00
28448;BME280;15675;52.870;-1.416;2023-03-21T09:32:47;99981.00;;;12.40;100.00
28448;BME280;15675;52.870;-1.416;2023-03-21T09:35:16;99977.25;;;12.56;100.00
28448;BME280;15675;52.870;-1.416;2023-03-21T09:37:43;99989.06;;;12.77;100.00
28448;BME280;15675;52.870;-1.416;2023-03-21T09:45:41;99972.59;;;12.77;100.00
28448;BME280;15675;52.870;-1.416;2023-03-21T09:48:34;99975.13;;;12.80;100.00
28448;BME280;15675;52.870;-1.416;2023-03-21T09:51:09;99978.63;;;12.79;100.00
28448;BME280;15675;52.870;-1.416;2023-03-21T09:53:40;99957.81;;;12.77;100.00
28448;BME280;15675;52.870;-1.416;2023-03-21T09:56:09;99971.84;;;12.69;100.00
28448;BME280;15675;52.870;-1.416;2023-03-21T09:58:43;99953.59;;;12.70;100.00
28448;BME280;15675;52.870;-1.416;2023-03-21T10:01:15;99955.16;;;12.79;100.00
28448;BME280;15675;52.870;-1.416;2023-03-21T10:03:51;99953.38;;;12.83;100.00
28448;BME280;15675;52.870;-1.416;2023-03-21T10:06:23;99951.00;;;12.70;100.00
28448;BME280;15675;52.870;-1.416;2023-03-21T10:08:57;99938.66;;;12.82;100.00
28448;BME280;15675;52.870;-1.416;2023-03-21T10:11:46;99949.81;;;12.88;100.00
28448;BME280;15675;52.870;-1.416;2023-03-21T10:14:18;99955.38;;;12.67;100.00
28448;BME280;15675;52.870;-1.416;2023-03-21T10:16:51;99967.47;;;12.71;100.00
28448;BME280;15675;52.870;-1.416;2023-03-21T10:19:19;99967.31;;;12.80;100.00
28448;BME280;15675;52.870;-1.416;2023-03-21T10:21:47;99953.38;;;12.81;100.00
28448;BME280;15675;52.870;-1.416;2023-03-21T10:24:16;99951.28;;;13.03;100.00
28448;BME280;15675;52.870;-1.416;2023-03-21T10:26:44;99948.59;;;13.06;100.00
28448;BME280;15675;52.870;-1.416;2023-03-21T10:29:13;99953.50;;;13.23;100.00
28448;BME280;15675;52.870;-1.416;2023-03-21T10:31:40;99944.50;;;13.41;100.00
28448;BME280;15675;52.870;-1.416;2023-03-21T10:34:15;99940.97;;;13.44;100.00
28448;BME280;15675;52.870;-1.416;2023-03-21T10:36:41;99936.09;;;13.24;100.00
28448;BME280;15675;52.870;-1.416;2023-03-21T10:39:27;99923.44;;;13.51;100.00
28448;BME280;15675;52.870;-1.416;2023-03-21T10:41:55;99924.00;;;13.65;100.00
28448;BME280;15675;52.870;-1.416;2023-03-21T10:44:31;99919.59;;;13.69;100.00
28448;BME280;15675;52.870;-1.416;2023-03-21T10:47:08;99913.81;;;13.54;100.00
28448;BME280;15675;52.870;-1.416;2023-03-21T10:49:35;99912.94;;;13.10;100.00
28448;BME280;15675;52.870;-1.416;2023-03-21T10:52:04;99929.91;;;13.31;100.00
28448;BME280;15675;52.870;-1.416;2023-03-21T10:54:32;99918.22;;;13.51;100.00
28448;BME280;15675;52.870;-1.416;2023-03-21T10:59:39;99922.69;;;13.86;100.00
28448;BME280;15675;52.870;-1.416;2023-03-21T11:02:18;99916.13;;;13.68;100.00
28448;BME280;15675;52.870;-1.416;2023-03-21T11:04:45;99905.69;;;14.07;100.00
28448;BME280;15675;52.870;-1.416;2023-03-21T11:07:13;99886.00;;;13.94;100.00
28448;BME280;15675;52.870;-1.416;2023-03-21T11:09:53;99899.44;;;13.77;100.00
28448;BME280;15675;52.870;-1.416;2023-03-21T11:12:34;99889.97;;;14.09;100.00
28448;BME280;15675;52.870;-1.416;2023-03-21T11:17:48;99890.66;;;14.17;100.00
28448;BME280;15675;52.870;-1.416;2023-03-21T11:20:17;99906.59;;;14.42;100.00
28448;BME280;15675;52.870;-1.416;2023-03-21T11:22:46;99914.28;;;14.83;100.00
28448;BME280;15675;52.870;-1.416;2023-03-21T11:25:21;99911.03;;;15.06;100.00
28448;BME280;15675;52.870;-1.416;2023-03-21T11:27:52;99909.34;;;15.05;100.00
28448;BME280;15675;52.870;-1.416;2023-03-21T11:30:23;99916.31;;;14.72;98.15
28448;BME280;15675;52.870;-1.416;2023-03-21T11:32:53;99930.41;;;14.64;96.23
28448;BME280;15675;52.870;-1.416;2023-03-21T11:35:27;99919.41;;;14.52;93.01
28448;BME280;15675;52.870;-1.416;2023-03-21T11:37:54;99918.16;;;14.68;93.70
28448;BME280;15675;52.870;-1.416;2023-03-21T11:40:28;99922.63;;;14.61;93.42
28448;BME280;15675;52.870;-1.416;2023-03-21T11:42:56;99915.31;;;14.76;90.68
28448;BME280;15675;52.870;-1.416;2023-03-21T11:45:27;99922.19;;;15.13;90.07
28448;BME280;15675;52.870;-1.416;2023-03-21T11:47:55;99927.16;;;14.91;88.33
28448;BME280;15675;52.870;-1.416;2023-03-21T11:50:34;99922.97;;;14.47;87.04
28448;BME280;15675;52.870;-1.416;2023-03-21T11:56:14;99903.09;;;14.42;85.50
28448;BME280;15675;52.870;-1.416;2023-03-21T12:10:43;99888.00;;;14.88;85.48
28448;BME280;15675;52.870;-1.416;2023-03-21T12:13:16;99896.00;;;15.14;86.94
28448;BME280;15675;52.870;-1.416;2023-03-21T12:27:09;99866.13;;;14.59;84.28
28448;BME280;15675;52.870;-1.416;2023-03-21T12:29:52;99880.66;;;14.69;83.61
28448;BME280;15675;52.870;-1.416;2023-03-21T12:37:59;99866.53;;;14.76;81.85
28448;BME280;15675;52.870;-1.416;2023-03-21T12:45:54;99866.13;;;14.92;82.80
28448;BME280;15675;52.870;-1.416;2023-03-21T12:49:11;99856.41;;;14.65;81.73
28448;BME280;15675;52.870;-1.416;2023-03-21T12:51:24;99863.22;;;14.71;82.18
28448;BME280;15675;52.870;-1.416;2023-03-21T12:54:09;99857.81;;;14.77;81.56
28448;BME280;15675;52.870;-1.416;2023-03-21T12:59:47;99870.13;;;15.05;83.16
28448;BME280;15675;52.870;-1.416;2023-03-21T13:04:54;99874.69;;;14.65;86.75
28448;BME280;15675;52.870;-1.416;2023-03-21T13:07:22;99866.75;;;15.01;86.84
28448;BME280;15675;52.870;-1.416;2023-03-21T13:09:49;99864.41;;;14.92;85.16
28448;BME280;15675;52.870;-1.416;2023-03-21T13:12:36;99860.75;;;14.98;85.46
28448;BME280;15675;52.870;-1.416;2023-03-21T13:23:08;99890.38;;;13.92;100.00
28448;BME280;15675;52.870;-1.416;2023-03-21T13:25:40;99871.22;;;13.93;100.00
28448;BME280;15675;52.870;-1.416;2023-03-21T13:28:25;99864.06;;;14.37;100.00
28448;BME280;15675;52.870;-1.416;2023-03-21T13:30:52;99871.94;;;14.36;100.00
28448;BME280;15675;52.870;-1.416;2023-03-21T13:33:27;99864.28;;;14.29;100.00
28448;BME280;15675;52.870;-1.416;2023-03-21T13:36:15;99861.25;;;14.45;100.00
28448;BME280;15675;52.870;-1.416;2023-03-21T13:38:48;99851.00;;;14.03;100.00
28448;BME280;15675;52.870;-1.416;2023-03-21T13:41:16;99861.63;;;14.31;100.00
28448;BME280;15675;52.870;-1.416;2023-03-21T13:44:17;99872.44;;;14.50;100.00
28448;BME280;15675;52.870;-1.416;2023-03-21T13:46:52;99850.69;;;14.15;100.00
28448;BME280;15675;52.870;-1.416;2023-03-21T13:49:33;99848.34;;;14.39;99.82
28448;BME280;15675;52.870;-1.416;2023-03-21T13:52:01;99867.13;;;14.19;98.66
28448;BME280;15675;52.870;-1.416;2023-03-21T13:54:52;99862.31;;;14.38;97.91
28448;BME280;15675;52.870;-1.416;2023-03-21T14:00:21;99864.69;;;14.47;97.91
28448;BME280;15675;52.870;-1.416;2023-03-21T14:02:49;99870.41;;;14.27;96.36
28448;BME280;15675;52.870;-1.416;2023-03-21T14:05:20;99875.75;;;13.85;97.12
28448;BME280;15675;52.870;-1.416;2023-03-21T14:07:48;99861.75;;;13.89;99.69
28448;BME280;15675;52.870;-1.416;2023-03-21T14:10:27;99870.75;;;14.13;99.72
28448;BME280;15675;52.870;-1.416;2023-03-21T14:12:55;99866.53;;;14.07;99.42
28448;BME280;15675;52.870;-1.416;2023-03-21T14:15:25;99868.81;;;14.21;100.00
28448;BME280;15675;52.870;-1.416;2023-03-21T14:22:46;99858.84;;;14.37;100.00